createdAt,value
2019-04-29T00:02:22.732Z,18.63
2019-04-29T00:04:49.173Z,18.47
2019-04-29T00:07:16.536Z,19.30
2019-04-29T00:09:43.607Z,18.70
2019-04-29T00:12:10.851Z,18.90
2019-04-29T00:14:39.973Z,20.17
2019-04-29T00:17:08.395Z,19.70
2019-04-29T00:19:53.307Z,19.70
2019-04-29T00:22:19.905Z,19.10
2019-04-29T00:24:46.224Z,20.27
2019-04-29T00:27:15.112Z,20.13
2019-04-29T00:29:41.417Z,20.37
2019-04-29T00:32:09.043Z,20.37
2019-04-29T00:34:35.980Z,20.37
2019-04-29T00:37:04.430Z,20.50
2019-04-29T00:39:49.128Z,20.83
2019-04-29T00:42:20.770Z,20.67
2019-04-29T00:44:47.270Z,20.00
2019-04-29T00:47:13.707Z,20.77
2019-04-29T00:49:40.124Z,20.77
2019-04-29T00:52:06.567Z,20.00
2019-04-29T00:54:34.999Z,20.20
2019-04-29T00:57:01.489Z,21.23
2019-04-29T00:59:29.815Z,20.97
2019-04-29T01:01:56.260Z,21.50
2019-04-29T01:04:23.238Z,20.83
2019-04-29T01:06:49.768Z,20.73
2019-04-29T01:09:18.205Z,21.07
2019-04-29T01:11:44.760Z,20.90
2019-04-29T01:14:11.289Z,21.10
2019-04-29T01:16:37.797Z,21.20
2019-04-29T01:19:04.750Z,21.60
2019-04-29T01:21:31.253Z,21.37
2019-04-29T01:23:57.707Z,21.33
2019-04-29T01:26:29.540Z,21.43
2019-04-29T01:29:04.162Z,22.30
2019-04-29T01:31:31.808Z,21.97
2019-04-29T01:34:00.340Z,21.60
2019-04-29T01:36:28.759Z,22.53
2019-04-29T01:38:57.400Z,22.00
2019-04-29T01:41:28.625Z,24.77
2019-04-29T01:43:58.863Z,23.83
2019-04-29T01:46:25.375Z,24.90
2019-04-29T01:48:51.791Z,25.20
2019-04-29T01:51:18.247Z,26.20
2019-04-29T01:53:44.548Z,26.57
2019-04-29T01:56:11.500Z,25.60
2019-04-29T01:58:37.862Z,26.03
2019-04-29T02:01:04.638Z,27.37
2019-04-29T02:03:30.994Z,26.37
2019-04-29T02:05:57.588Z,27.37
2019-04-29T02:08:25.126Z,27.80
2019-04-29T02:10:51.552Z,27.73
2019-04-29T02:13:18.015Z,28.90
2019-04-29T02:15:44.405Z,28.93
2019-04-29T02:18:10.744Z,29.03
2019-04-29T02:20:37.188Z,28.67
2019-04-29T02:23:08.363Z,28.73
2019-04-29T02:25:39.634Z,28.90
2019-04-29T02:28:06.071Z,29.83
2019-04-29T02:30:40.658Z,30.27
2019-04-29T02:33:08.555Z,28.53
2019-04-29T02:35:35.726Z,30.43
2019-04-29T02:38:03.879Z,28.97
2019-04-29T02:40:48.837Z,30.53
2019-04-29T02:43:17.221Z,30.60
2019-04-29T02:45:43.749Z,31.43
2019-04-29T02:48:12.535Z,32.37
2019-04-29T02:50:39.677Z,33.10
2019-04-29T02:53:07.463Z,31.57
2019-04-29T02:55:35.814Z,33.23
2019-04-29T02:58:04.204Z,33.70
2019-04-29T03:00:32.600Z,34.57
2019-04-29T03:03:06.708Z,33.27
2019-04-29T03:05:40.988Z,35.23
2019-04-29T03:08:07.425Z,34.70
2019-04-29T03:10:33.974Z,35.00
2019-04-29T03:13:00.486Z,33.83
2019-04-29T03:15:29.325Z,34.87
2019-04-29T03:17:56.155Z,35.97
2019-04-29T03:20:24.937Z,34.83
2019-04-29T03:22:54.071Z,34.30
2019-04-29T03:25:20.680Z,35.23
2019-04-29T03:27:46.988Z,35.10
2019-04-29T03:30:13.692Z,35.20
2019-04-29T03:32:40.289Z,36.13
2019-04-29T03:35:07.051Z,36.50
2019-04-29T03:37:33.881Z,36.90
2019-04-29T03:40:00.387Z,37.27
2019-04-29T03:42:26.897Z,36.67
2019-04-29T03:44:53.202Z,35.23
2019-04-29T03:47:21.225Z,36.00
2019-04-29T03:49:47.586Z,37.30
2019-04-29T03:52:14.000Z,38.80
2019-04-29T03:54:40.562Z,39.07
2019-04-29T03:57:09.065Z,38.93
2019-04-29T03:59:35.696Z,38.20
2019-04-29T04:02:16.383Z,39.97
2019-04-29T04:04:50.742Z,39.70
2019-04-29T04:07:28.183Z,41.67
2019-04-29T04:09:54.609Z,39.00
2019-04-29T04:12:21.178Z,40.47
2019-04-29T04:14:47.610Z,39.93
2019-04-29T04:17:20.232Z,40.23
2019-04-29T04:19:48.001Z,40.13
2019-04-29T04:22:14.525Z,41.13
2019-04-29T04:24:41.066Z,40.87
2019-04-29T04:27:07.616Z,41.03
2019-04-29T04:29:33.998Z,40.30
2019-04-29T04:32:00.415Z,41.80
2019-04-29T04:34:27.374Z,43.10
2019-04-29T04:36:53.852Z,42.53
2019-04-29T04:39:20.260Z,41.90
2019-04-29T04:41:46.676Z,44.00
2019-04-29T04:44:13.516Z,43.17
2019-04-29T04:46:40.059Z,42.07
2019-04-29T04:49:06.724Z,42.30
2019-04-29T04:51:33.039Z,42.80
2019-04-29T04:53:59.588Z,43.37
2019-04-29T04:56:26.062Z,42.97
2019-04-29T04:58:52.420Z,42.57
2019-04-29T05:01:19.284Z,43.87
2019-04-29T05:03:47.032Z,42.67
2019-04-29T05:06:13.573Z,42.27
2019-04-29T05:08:40.407Z,40.10
2019-04-29T05:11:07.510Z,42.00
2019-04-29T05:13:34.439Z,40.77
2019-04-29T05:16:00.953Z,41.23
2019-04-29T05:18:27.246Z,42.10
2019-04-29T05:20:54.123Z,42.40
2019-04-29T05:23:20.633Z,40.80
2019-04-29T05:25:47.378Z,41.07
2019-04-29T05:28:13.744Z,40.00
2019-04-29T05:30:40.160Z,42.00
2019-04-29T05:33:06.486Z,41.80
2019-04-29T05:35:35.478Z,40.30
2019-04-29T05:38:03.914Z,39.73
2019-04-29T05:40:47.690Z,41.10
2019-04-29T05:43:15.917Z,40.40
2019-04-29T05:46:00.932Z,41.27
2019-04-29T05:48:27.587Z,39.27
2019-04-29T05:51:15.357Z,39.63
2019-04-29T05:53:47.295Z,39.97
2019-04-29T05:56:12.043Z,37.97
2019-04-29T05:58:39.624Z,38.67
2019-04-29T06:01:07.933Z,39.30
2019-04-29T06:03:37.850Z,37.70
2019-04-29T06:06:03.973Z,37.93
2019-04-29T06:08:34.342Z,36.70
2019-04-29T06:10:58.666Z,35.90
2019-04-29T06:13:25.700Z,36.50
2019-04-29T06:15:52.256Z,36.97
2019-04-29T06:18:22.146Z,35.23
2019-04-29T06:20:47.010Z,35.43
2019-04-29T06:23:13.497Z,33.77
2019-04-29T06:25:39.998Z,33.57
2019-04-29T06:28:06.401Z,33.57
2019-04-29T06:30:36.864Z,33.17
2019-04-29T06:33:01.569Z,34.13
2019-04-29T06:35:27.981Z,32.80
2019-04-29T06:37:54.420Z,31.80
2019-04-29T06:40:20.938Z,32.00
2019-04-29T06:42:49.490Z,32.67
2019-04-29T06:45:15.777Z,31.10
2019-04-29T06:47:42.247Z,29.33
2019-04-29T06:50:09.278Z,30.53
2019-04-29T06:52:35.677Z,29.73
2019-04-29T06:55:02.634Z,29.87
2019-04-29T06:57:29.152Z,28.67
2019-04-29T06:59:55.802Z,29.67
2019-04-29T07:02:22.164Z,30.00
2019-04-29T07:04:48.719Z,29.37
2019-04-29T07:07:15.145Z,29.13
2019-04-29T07:09:41.787Z,28.57
2019-04-29T07:12:12.328Z,28.53
2019-04-29T07:14:38.579Z,28.30
2019-04-29T07:17:05.579Z,29.10
2019-04-29T07:19:33.112Z,28.03
2019-04-29T07:21:59.468Z,25.97
2019-04-29T07:24:25.783Z,27.13
2019-04-29T07:26:52.315Z,26.67
2019-04-29T07:29:19.245Z,25.53
2019-04-29T07:31:46.202Z,26.50
2019-04-29T07:34:13.120Z,25.57
2019-04-29T07:36:39.585Z,24.93
2019-04-29T07:39:06.586Z,25.73
2019-04-29T07:41:33.008Z,25.63
2019-04-29T07:43:59.383Z,24.87
2019-04-29T07:46:27.841Z,24.53
2019-04-29T07:49:01.177Z,23.57
2019-04-29T07:51:22.783Z,23.90
2019-04-29T07:53:49.456Z,22.47
2019-04-29T07:56:16.420Z,23.37
2019-04-29T07:58:42.917Z,21.80
2019-04-29T08:01:09.327Z,21.57
2019-04-29T08:03:36.081Z,20.17
2019-04-29T08:06:03.062Z,19.37
2019-04-29T08:08:31.934Z,19.43
2019-04-29T08:10:58.497Z,18.67
2019-04-29T08:13:25.600Z,18.13
2019-04-29T08:15:53.374Z,18.73
2019-04-29T08:18:20.040Z,17.23
2019-04-29T08:20:46.454Z,16.80
2019-04-29T08:23:13.454Z,17.93
2019-04-29T08:25:39.781Z,17.47
2019-04-29T08:28:06.302Z,16.00
2019-04-29T08:30:32.829Z,16.30
2019-04-29T08:32:59.521Z,15.43
2019-04-29T08:35:26.083Z,15.77
2019-04-29T08:37:52.426Z,15.87
2019-04-29T08:40:19.053Z,15.73
2019-04-29T08:42:50.798Z,15.60
2019-04-29T08:45:21.693Z,15.43
2019-04-29T08:47:52.215Z,15.33
2019-04-29T08:50:19.143Z,15.07
2019-04-29T08:52:45.753Z,15.67
2019-04-29T08:55:13.307Z,14.78
2019-04-29T08:57:39.798Z,14.75
2019-04-29T09:00:07.076Z,15.40
2019-04-29T09:02:35.664Z,14.58
2019-04-29T09:05:06.851Z,14.93
2019-04-29T09:07:32.623Z,14.95
2019-04-29T09:10:01.677Z,14.75
2019-04-29T09:12:29.425Z,14.63
2019-04-29T09:14:56.377Z,14.05
2019-04-29T09:17:22.813Z,13.58
2019-04-29T09:19:49.859Z,13.35
2019-04-29T09:22:18.131Z,14.78
2019-04-29T09:25:04.042Z,14.58
2019-04-29T09:27:31.099Z,13.25
2019-04-29T09:29:58.795Z,15.30
2019-04-29T09:32:26.296Z,13.83
2019-04-29T09:34:55.545Z,14.03
2019-04-29T09:37:22.875Z,13.93
2019-04-29T09:39:49.406Z,12.78
2019-04-29T09:42:31.081Z,13.80
2019-04-29T09:45:00.867Z,13.32
2019-04-29T09:47:27.562Z,13.70
2019-04-29T09:49:54.009Z,12.82
2019-04-29T09:52:20.531Z,13.62
2019-04-29T09:54:47.142Z,13.25
2019-04-29T09:57:14.057Z,12.73
2019-04-29T09:59:54.443Z,13.72
2019-04-29T10:02:39.427Z,12.75
2019-04-29T10:05:24.763Z,13.28
2019-04-29T10:07:51.537Z,13.22
2019-04-29T10:10:18.072Z,14.65
2019-04-29T10:12:44.614Z,13.30
2019-04-29T10:15:13.541Z,13.70
2019-04-29T10:17:50.954Z,14.07
2019-04-29T10:20:17.882Z,12.75
2019-04-29T10:22:44.928Z,14.05
2019-04-29T10:25:11.418Z,13.38
2019-04-29T10:27:38.262Z,14.58
2019-04-29T10:30:07.963Z,13.85
2019-04-29T10:32:37.827Z,14.00
2019-04-29T10:35:08.925Z,13.58
2019-04-29T10:37:34.698Z,13.50
2019-04-29T10:40:11.023Z,13.55
2019-04-29T10:42:39.812Z,12.98
2019-04-29T10:45:18.037Z,12.23
2019-04-29T10:47:46.503Z,12.43
2019-04-29T10:50:23.724Z,12.37
2019-04-29T10:52:49.367Z,13.20
2019-04-29T10:55:16.984Z,12.53
2019-04-29T10:57:44.945Z,13.08
2019-04-29T11:00:23.517Z,13.20
2019-04-29T11:02:51.362Z,13.03
2019-04-29T11:05:31.173Z,12.88
2019-04-29T11:08:02.638Z,12.43
2019-04-29T11:10:30.468Z,12.00
2019-04-29T11:12:57.672Z,13.60
2019-04-29T11:15:29.398Z,13.20
2019-04-29T11:17:59.190Z,11.95
2019-04-29T11:20:24.786Z,12.53
2019-04-29T11:22:53.197Z,13.00
2019-04-29T11:25:25.074Z,12.55
2019-04-29T11:27:56.414Z,12.13
2019-04-29T11:30:24.967Z,12.35
2019-04-29T11:32:53.385Z,12.37
2019-04-29T11:35:24.502Z,12.20
2019-04-29T11:37:55.363Z,12.50
2019-04-29T11:40:24.346Z,12.07
2019-04-29T11:42:48.830Z,12.78
2019-04-29T11:45:15.609Z,12.43
2019-04-29T11:47:42.110Z,13.05
2019-04-29T11:50:13.677Z,12.95
2019-04-29T11:52:40.560Z,12.37
2019-04-29T11:55:09.306Z,12.65
2019-04-29T11:57:41.319Z,12.45
2019-04-29T12:00:27.313Z,12.33
2019-04-29T12:02:55.691Z,11.70
2019-04-29T12:05:27.310Z,12.15
2019-04-29T12:07:53.835Z,12.28
2019-04-29T12:10:20.704Z,12.53
2019-04-29T12:12:48.923Z,12.50
2019-04-29T12:15:32.787Z,12.55
2019-04-29T12:18:01.551Z,11.85
2019-04-29T12:20:29.961Z,12.40
2019-04-29T12:22:56.549Z,11.78
2019-04-29T12:25:27.393Z,12.60
2019-04-29T12:28:01.270Z,12.13
2019-04-29T12:30:22.118Z,13.10
2019-04-29T12:32:52.308Z,12.15
2019-04-29T12:35:30.025Z,12.43
2019-04-29T12:38:13.517Z,12.58
2019-04-29T12:40:54.644Z,12.60
2019-04-29T12:43:37.735Z,13.58
2019-04-29T12:46:06.217Z,12.33
2019-04-29T12:48:32.805Z,12.30
2019-04-29T12:50:59.215Z,13.13
2019-04-29T12:53:26.407Z,12.75
2019-04-29T12:55:54.762Z,12.50
2019-04-29T12:58:24.092Z,12.20
2019-04-29T13:00:56.461Z,12.10
2019-04-29T13:03:39.789Z,12.37
2019-04-29T13:06:09.675Z,13.48
2019-04-29T13:08:39.230Z,13.40
2019-04-29T13:11:08.019Z,13.53
2019-04-29T13:13:34.890Z,12.82
2019-04-29T13:16:22.284Z,12.58
2019-04-29T13:19:10.633Z,12.80
2019-04-29T13:21:28.193Z,13.88
2019-04-29T13:24:05.314Z,12.93
2019-04-29T13:26:28.122Z,13.20
2019-04-29T13:29:00.207Z,12.28
2019-04-29T13:31:20.323Z,21.97
2019-04-29T13:33:50.863Z,17.20
2019-04-29T13:36:19.779Z,11.95
2019-04-29T13:38:44.145Z,12.15
2019-04-29T13:41:14.004Z,12.35
2019-04-29T13:43:39.147Z,13.30
2019-04-29T13:46:16.738Z,13.58
2019-04-29T13:48:55.207Z,13.00
2019-04-29T13:51:33.988Z,12.82
2019-04-29T13:53:43.428Z,12.90
2019-04-29T13:56:13.976Z,13.05
2019-04-29T13:58:38.750Z,12.03
2019-04-29T14:01:22.237Z,12.53
2019-04-29T14:06:56.123Z,13.50
2019-04-29T14:09:11.962Z,12.85
2019-04-29T14:11:38.496Z,13.32
2019-04-29T14:14:05.010Z,13.78
2019-04-29T14:16:31.607Z,14.70
2019-04-29T14:18:58.025Z,13.30
2019-04-29T14:21:29.712Z,13.65
2019-04-29T14:23:54.845Z,13.62
2019-04-29T14:26:21.154Z,14.15
2019-04-29T14:28:47.873Z,14.00
2019-04-29T14:31:14.344Z,13.53
2019-04-29T14:34:00.394Z,13.20
2019-04-29T14:36:26.393Z,13.32
2019-04-29T14:38:53.502Z,13.25
2019-04-29T14:41:20.951Z,13.62
2019-04-29T14:44:04.621Z,14.53
2019-04-29T14:46:38.934Z,13.93
2019-04-29T14:49:16.254Z,12.25
2019-04-29T14:51:42.787Z,12.68
2019-04-29T14:54:09.510Z,12.43
2019-04-29T14:56:36.497Z,13.05
2019-04-29T14:59:07.061Z,13.03
2019-04-29T15:01:40.540Z,13.28
2019-04-29T15:04:17.842Z,13.32
2019-04-29T15:06:37.413Z,13.03
2019-04-29T15:09:16.986Z,14.00
2019-04-29T15:11:47.203Z,14.80
2019-04-29T15:14:28.121Z,13.53
2019-04-29T15:17:00.914Z,12.82
2019-04-29T15:19:48.865Z,12.98
2019-04-29T15:22:14.566Z,12.30
2019-04-29T15:24:40.983Z,12.60
2019-04-29T15:27:07.504Z,12.75
2019-04-29T15:29:35.049Z,13.55
2019-04-29T15:32:02.493Z,13.72
2019-04-29T15:34:29.031Z,13.55
2019-04-29T15:36:55.829Z,13.65
2019-04-29T15:39:25.235Z,12.70
2019-04-29T15:41:50.394Z,12.93
2019-04-29T15:44:20.395Z,12.65
2019-04-29T15:46:46.696Z,12.65
2019-04-29T15:49:13.723Z,12.43
2019-04-29T15:51:44.032Z,12.20
2019-04-29T15:54:14.415Z,12.13
2019-04-29T15:56:38.634Z,12.28
2019-04-29T15:59:08.682Z,11.75
2019-04-29T16:01:33.418Z,11.22
2019-04-29T16:04:01.949Z,12.27
2019-04-29T16:06:45.752Z,12.47
2019-04-29T16:09:50.303Z,11.73
2019-04-29T16:12:05.205Z,12.37
2019-04-29T16:14:30.189Z,12.33
2019-04-29T16:16:57.497Z,11.25
2019-04-29T16:19:23.849Z,11.60
2019-04-29T16:21:50.759Z,11.25
2019-04-29T16:24:26.230Z,11.45
2019-04-29T16:26:45.346Z,12.47
2019-04-29T16:29:13.413Z,11.53
2019-04-29T16:31:40.133Z,12.23
2019-04-29T16:34:06.565Z,11.10
2019-04-29T16:36:33.224Z,11.43
2019-04-29T16:38:59.688Z,11.70
2019-04-29T16:41:37.022Z,12.23
2019-04-29T16:44:06.544Z,11.43
2019-04-29T16:46:37.450Z,11.28
2019-04-29T16:49:01.725Z,10.88
2019-04-29T16:51:28.274Z,11.50
2019-04-29T16:53:55.413Z,11.28
2019-04-29T16:56:21.831Z,11.57
2019-04-29T16:58:49.378Z,11.53
2019-04-29T17:01:15.931Z,12.05
2019-04-29T17:03:42.840Z,12.10
2019-04-29T17:06:09.410Z,11.55
2019-04-29T17:08:40.804Z,12.13
2019-04-29T17:11:17.574Z,12.33
2019-04-29T17:13:43.968Z,10.13
2019-04-29T17:16:12.400Z,11.10
2019-04-29T17:18:38.976Z,10.43
2019-04-29T17:21:07.339Z,10.40
2019-04-29T17:23:33.730Z,10.67
2019-04-29T17:26:00.371Z,11.13
2019-04-29T17:28:29.270Z,9.70
2019-04-29T17:31:00.836Z,9.93
2019-04-29T17:33:30.157Z,9.50
2019-04-29T17:35:58.483Z,9.70
2019-04-29T17:38:25.155Z,9.83
2019-04-29T17:40:51.816Z,10.10
2019-04-29T17:43:20.323Z,9.83
2019-04-29T17:45:52.019Z,10.17
2019-04-29T17:48:26.532Z,10.13
2019-04-29T17:51:00.944Z,9.80
2019-04-29T17:53:29.751Z,10.00
2019-04-29T17:55:57.944Z,10.10
2019-04-29T17:58:31.883Z,9.47
2019-04-29T18:01:05.326Z,9.80
2019-04-29T18:03:41.215Z,8.80
2019-04-29T18:06:17.244Z,9.27
2019-04-29T18:08:57.695Z,8.73
2019-04-29T18:11:19.895Z,8.83
2019-04-29T18:13:46.219Z,8.60
2019-04-29T18:16:19.081Z,8.73
2019-04-29T18:18:57.261Z,9.13
2019-04-29T18:21:22.030Z,8.50
2019-04-29T18:23:59.560Z,8.37
2019-04-29T18:26:29.891Z,8.83
2019-04-29T18:29:03.733Z,7.90
2019-04-29T18:31:30.429Z,8.33
2019-04-29T18:33:58.156Z,8.17
2019-04-29T18:36:26.246Z,8.67
2019-04-29T18:38:50.963Z,8.30
2019-04-29T18:41:24.565Z,8.07
2019-04-29T18:43:45.806Z,8.17
2019-04-29T18:46:14.120Z,9.00
2019-04-29T18:48:40.408Z,8.80
2019-04-29T18:51:06.948Z,8.50
2019-04-29T18:53:35.310Z,9.00
2019-04-29T18:56:05.106Z,8.70
2019-04-29T18:58:30.376Z,8.83
2019-04-29T19:00:56.895Z,8.87
2019-04-29T19:03:29.673Z,8.80
2019-04-29T19:05:58.222Z,9.43
2019-04-29T19:08:26.768Z,8.97
2019-04-29T19:10:52.875Z,8.50
2019-04-29T19:13:19.356Z,8.80
2019-04-29T19:15:48.500Z,8.80
2019-04-29T19:18:17.504Z,9.20
2019-04-29T19:20:46.110Z,9.20
2019-04-29T19:23:11.602Z,8.40
2019-04-29T19:25:41.483Z,8.17
2019-04-29T19:28:14.332Z,9.60
2019-04-29T19:30:35.700Z,9.43
2019-04-29T19:33:02.297Z,8.80
2019-04-29T19:35:37.019Z,7.90
2019-04-29T19:37:59.733Z,9.07
2019-04-29T19:40:30.636Z,8.47
2019-04-29T19:42:55.927Z,9.00
2019-04-29T19:45:24.815Z,8.17
2019-04-29T19:47:53.413Z,8.93
2019-04-29T19:50:19.857Z,8.20
2019-04-29T19:52:47.079Z,8.60
2019-04-29T19:55:13.960Z,8.77
2019-04-29T19:57:46.914Z,9.17
2019-04-29T20:00:10.090Z,9.00
2019-04-29T20:02:45.382Z,8.73
2019-04-29T20:05:17.533Z,8.20
2019-04-29T20:07:49.738Z,9.17
2019-04-29T20:10:14.987Z,9.30
2019-04-29T20:12:46.177Z,8.50
2019-04-29T20:15:12.155Z,8.37
2019-04-29T20:17:45.805Z,8.20
2019-04-29T20:20:11.654Z,8.23
2019-04-29T20:22:43.515Z,8.60
2019-04-29T20:25:07.162Z,7.90
2019-04-29T20:27:35.646Z,8.90
2019-04-29T20:30:15.983Z,8.60
2019-04-29T20:32:33.197Z,7.93
2019-04-29T20:35:06.845Z,8.23
2019-04-29T20:37:28.364Z,8.00
2019-04-29T20:39:59.037Z,7.80
2019-04-29T20:42:23.429Z,7.83
2019-04-29T20:44:49.994Z,7.73
2019-04-29T20:47:22.129Z,7.37
2019-04-29T20:49:44.966Z,7.07
2019-04-29T20:52:21.719Z,7.27
2019-04-29T20:54:53.259Z,8.27
2019-04-29T20:57:20.544Z,7.50
2019-04-29T20:59:48.826Z,7.57
2019-04-29T21:02:20.031Z,7.53
2019-04-29T21:04:46.488Z,7.20
2019-04-29T21:07:10.130Z,7.23
2019-04-29T21:09:36.592Z,6.90
2019-04-29T21:12:05.519Z,8.00
2019-04-29T21:14:38.203Z,6.83
2019-04-29T21:17:08.149Z,6.73
2019-04-29T21:19:46.113Z,7.00
2019-04-29T21:22:20.385Z,7.67
2019-04-29T21:25:00.599Z,7.10
2019-04-29T21:27:26.695Z,7.37
2019-04-29T21:29:54.141Z,7.10
2019-04-29T21:32:21.045Z,7.50
2019-04-29T21:34:49.407Z,6.90
2019-04-29T21:37:25.813Z,7.13
2019-04-29T21:40:00.324Z,6.80
2019-04-29T21:42:35.334Z,7.27
2019-04-29T21:45:08.613Z,7.07
2019-04-29T21:47:44.341Z,6.80
2019-04-29T21:50:05.045Z,6.40
2019-04-29T21:52:31.829Z,6.53
2019-04-29T21:54:58.625Z,6.73
2019-04-29T21:57:25.677Z,6.63
2019-04-29T21:59:52.251Z,7.30
2019-04-29T22:02:19.098Z,6.47
2019-04-29T22:04:47.009Z,6.97
2019-04-29T22:07:15.643Z,7.20
2019-04-29T22:09:47.246Z,7.17
2019-04-29T22:12:14.211Z,6.80
2019-04-29T22:14:39.584Z,8.00
2019-04-29T22:17:06.101Z,7.93
2019-04-29T22:19:32.706Z,7.23
2019-04-29T22:22:01.494Z,6.90
2019-04-29T22:24:28.135Z,7.43
2019-04-29T22:26:58.200Z,7.03
2019-04-29T22:29:22.952Z,7.30
2019-04-29T22:31:49.684Z,6.93
2019-04-29T22:34:19.151Z,7.27
2019-04-29T22:36:45.448Z,7.20
2019-04-29T22:39:13.043Z,6.77
2019-04-29T22:41:48.718Z,6.57
2019-04-29T22:44:21.837Z,6.93
2019-04-29T22:46:47.231Z,7.37
2019-04-29T22:49:18.205Z,6.93
2019-04-29T22:51:42.462Z,6.90
2019-04-29T22:54:08.916Z,7.10
2019-04-29T22:56:37.405Z,6.50
2019-04-29T22:59:05.725Z,6.60
2019-04-29T23:01:35.839Z,7.40
2019-04-29T23:04:02.012Z,7.00
2019-04-29T23:06:28.327Z,7.00
2019-04-29T23:08:56.155Z,6.67
2019-04-29T23:11:22.863Z,6.67
2019-04-29T23:13:49.371Z,7.50
2019-04-29T23:16:16.004Z,6.13
2019-04-29T23:18:44.061Z,6.70
2019-04-29T23:21:35.027Z,6.90
2019-04-29T23:24:18.083Z,6.33
2019-04-29T23:26:44.955Z,7.17
2019-04-29T23:29:11.797Z,7.20
2019-04-29T23:31:38.184Z,6.50
2019-04-29T23:34:05.805Z,7.13
2019-04-29T23:36:32.678Z,6.83
2019-04-29T23:38:59.137Z,7.37
2019-04-29T23:41:32.861Z,6.70
2019-04-29T23:43:55.601Z,7.30
2019-04-29T23:46:22.576Z,6.33
2019-04-29T23:48:49.312Z,6.57
2019-04-29T23:51:17.375Z,6.50
2019-04-29T23:53:45.264Z,7.60
2019-04-29T23:56:12.293Z,6.30
2019-04-29T23:58:58.929Z,7.33
